Time;durP1;ratioP1;P1;durP2;ratioP2;P2;SDS_P1;SDS_P2;PMS_P1;PMS_P2;Temp;Humidity;BMP_temperature;BMP_pressure;BME280_temperature;BME280_humidity;BME280_pressure;Samples;Min_cycle;Max_cycle;Signal;HPM_P1;HPM_P2
2023/02/22 00:01:27;;;;;;;4.82;3.30;;;;;;;;;;5080636;28;20039;-89
2023/02/22 00:03:53;;;;;;;5.47;2.90;;;;;;;;;;5079463;28;20019;-89
2023/02/22 00:06:23;;;;;;;4.78;3.13;;;;;;;;;;5078647;27;20285;-88
2023/02/22 00:08:51;;;;;;;4.72;3.53;;;;;;;;;;5090832;28;20023;-90
2023/02/22 00:11:19;;;;;;;5.35;3.53;;;;;;;;;;5080795;28;20023;-87
2023/02/22 00:13:45;;;;;;;5.25;3.58;;;;;;;;;;5080750;28;20023;-87
2023/02/22 00:16:16;;;;;;;5.47;3.58;;;;;;;;;;5081071;28;20035;-89
2023/02/22 00:18:45;;;;;;;6.38;3.25;;;;;;;;;;5073572;28;20031;-88
2023/02/22 00:21:12;;;;;;;8.60;3.72;;;;;;;;;;5081182;28;20043;-89
2023/02/22 00:23:46;;;;;;;5.72;3.05;;;;;;;;;;5087277;27;20027;-89
2023/02/22 00:26:22;;;;;;;6.60;3.20;;;;;;;;;;5086679;27;20035;-89
2023/02/22 00:28:50;;;;;;;7.18;3.30;;;;;;;;;;5079613;28;20034;-89
2023/02/22 00:31:16;;;;;;;4.60;3.38;;;;;;;;;;5082390;28;20092;-90
2023/02/22 00:33:43;;;;;;;6.53;2.80;;;;;;;;;;5078443;28;20158;-88
2023/02/22 00:36:10;;;;;;;7.60;3.65;;;;;;;;;;5079391;28;20031;-89
2023/02/22 00:38:37;;;;;;;5.38;3.70;;;;;;;;;;5082699;27;20279;-90
2023/02/22 00:41:03;;;;;;;20.58;3.80;;;;;;;;;;5082275;28;20040;-89
2023/02/22 00:43:29;;;;;;;5.95;3.30;;;;;;;;;;5100277;27;20031;-88
2023/02/22 00:45:56;;;;;;;8.80;3.65;;;;;;;;;;5090348;28;20028;-88
2023/02/22 00:48:23;;;;;;;5.97;3.65;;;;;;;;;;5083209;28;20032;-88
2023/02/22 00:50:49;;;;;;;5.55;3.33;;;;;;;;;;5085962;28;20034;-89
2023/02/22 00:53:15;;;;;;;4.53;3.28;;;;;;;;;;5083465;28;20790;-89
2023/02/22 00:55:42;;;;;;;4.50;3.38;;;;;;;;;;5076488;28;20516;-89
2023/02/22 00:58:08;;;;;;;7.60;3.50;;;;;;;;;;5079864;28;20032;-89
2023/02/22 01:00:40;;;;;;;6.35;3.75;;;;;;;;;;5085305;28;20047;-88
2023/02/22 01:03:06;;;;;;;;;;;;;;;;;;5087536;28;20426;-88
2023/02/22 01:05:33;;;;;;;4.78;3.35;;;;;;;;;;5072745;28;19908;-88
2023/02/22 01:08:00;;;;;;;6.90;3.35;;;;;;;;;;5083312;28;20307;-89
2023/02/22 01:10:27;;;;;;;6.82;3.80;;;;;;;;;;5096946;28;20024;-90
2023/02/22 01:12:54;;;;;;;6.18;3.45;;;;;;;;;;5070104;28;20510;-89
2023/02/22 01:15:21;;;;;;;6.32;3.35;;;;;;;;;;5099713;28;20019;-88
2023/02/22 01:17:48;;;;;;;4.90;3.65;;;;;;;;;;5088268;28;20020;-89
2023/02/22 01:20:15;;;;;;;5.40;3.50;;;;;;;;;;5079166;28;20579;-89
2023/02/22 01:22:43;;;;;;;14.20;3.83;;;;;;;;;;5094529;27;20028;-89
2023/02/22 01:25:12;;;;;;;4.93;3.15;;;;;;;;;;5080897;28;20085;-89
2023/02/22 01:27:39;;;;;;;6.38;3.33;;;;;;;;;;5100395;27;20468;-90
2023/02/22 01:30:07;;;;;;;5.88;3.42;;;;;;;;;;5085822;28;20024;-88
2023/02/22 01:32:37;;;;;;;6.15;3.15;;;;;;;;;;5078630;28;20020;-88
2023/02/22 01:35:04;;;;;;;6.30;3.08;;;;;;;;;;5078259;28;20030;-89
2023/02/22 01:37:36;;;;;;;5.60;3.17;;;;;;;;;;5079571;28;20051;-89
2023/02/22 01:40:06;;;;;;;5.60;3.30;;;;;;;;;;5089436;28;20109;-89
2023/02/22 01:42:32;;;;;;;5.38;3.38;;;;;;;;;;5099789;27;20099;-89
2023/02/22 01:45:17;;;;;;;4.18;3.22;;;;;;;;;;5086613;28;20051;-89
2023/02/22 01:47:43;;;;;;;7.25;3.28;;;;;;;;;;5093745;27;20062;-88
2023/02/22 01:50:09;;;;;;;3.75;2.53;;;;;;;;;;5089424;28;20020;-88
2023/02/22 01:52:37;;;;;;;4.65;3.03;;;;;;;;;;5084594;27;20381;-87
2023/02/22 01:55:03;;;;;;;5.85;3.55;;;;;;;;;;5084776;28;20098;-88
2023/02/22 01:57:35;;;;;;;7.22;3.30;;;;;;;;;;5063632;28;20064;-88
2023/02/22 02:00:11;;;;;;;3.97;2.75;;;;;;;;;;5073187;28;20024;-88
2023/02/22 02:02:41;;;;;;;6.13;3.35;;;;;;;;;;5059753;28;20581;-87
2023/02/22 02:05:07;;;;;;;4.22;3.00;;;;;;;;;;5063743;28;20024;-89
2023/02/22 02:07:35;;;;;;;6.32;3.22;;;;;;;;;;5060887;28;20224;-89
2023/02/22 02:10:03;;;;;;;4.53;3.15;;;;;;;;;;5059774;28;20129;-89
2023/02/22 02:12:30;;;;;;;5.55;3.67;;;;;;;;;;5074405;28;20028;-88
2023/02/22 02:15:15;;;;;;;4.88;3.45;;;;;;;;;;5063572;28;20028;-89
2023/02/22 02:17:42;;;;;;;6.15;3.90;;;;;;;;;;5073202;28;20028;-87
2023/02/22 02:20:38;;;;;;;5.47;3.60;;;;;;;;;;5062788;28;20027;-88
2023/02/22 02:23:10;;;;;;;9.55;4.18;;;;;;;;;;5022624;28;20041;-87
2023/02/22 02:25:36;;;;;;;;;;;;;;;;;;5072853;28;20450;-88
2023/02/22 02:28:05;;;;;;;5.20;3.33;;;;;;;;;;5062625;28;20186;-89
2023/02/22 02:30:32;;;;;;;5.45;3.35;;;;;;;;;;5064237;28;20338;-88
2023/02/22 02:33:06;;;;;;;5.90;3.72;;;;;;;;;;5072125;28;20032;-89
2023/02/22 02:35:38;;;;;;;5.97;3.90;;;;;;;;;;5055260;28;20361;-88
2023/02/22 02:38:12;;;;;;;7.60;4.30;;;;;;;;;;5061641;28;20505;-88
2023/02/22 02:40:41;;;;;;;5.88;4.15;;;;;;;;;;5061235;28;20498;-86
2023/02/22 02:43:26;;;;;;;4.68;3.78;;;;;;;;;;5078722;28;20208;-88
2023/02/22 02:45:55;;;;;;;6.32;4.38;;;;;;;;;;5073625;28;20021;-89
2023/02/22 02:48:25;;;;;;;7.57;4.38;;;;;;;;;;5078186;28;20089;-89
2023/02/22 02:50:52;;;;;;;5.30;3.72;;;;;;;;;;5078238;28;20570;-89
2023/02/22 02:53:21;;;;;;;4.90;3.63;;;;;;;;;;5080587;28;20028;-88
2023/02/22 02:55:48;;;;;;;6.20;3.63;;;;;;;;;;5090175;28;20320;-88
2023/02/22 02:58:22;;;;;;;6.45;4.30;;;;;;;;;;5077704;28;20039;-89
2023/02/22 03:00:49;;;;;;;5.53;3.35;;;;;;;;;;5101747;27;20031;-89
2023/02/22 03:03:28;;;;;;;8.70;3.92;;;;;;;;;;5083158;28;20485;-88
2023/02/22 03:06:13;;;;;;;5.68;3.88;;;;;;;;;;5075912;28;20032;-90
2023/02/22 03:08:44;;;;;;;6.90;3.42;;;;;;;;;;5075760;28;20362;-89
2023/02/22 03:11:18;;;;;;;7.30;4.32;;;;;;;;;;5078366;28;20024;-88
2023/02/22 03:13:50;;;;;;;8.20;3.75;;;;;;;;;;5080352;28;20024;-89
2023/02/22 03:16:21;;;;;;;6.35;3.85;;;;;;;;;;5070439;28;20160;-87
2023/02/22 03:18:56;;;;;;;5.55;3.78;;;;;;;;;;5094041;28;20043;-89
2023/02/22 03:21:35;;;;;;;8.50;4.18;;;;;;;;;;5092444;28;20070;-88
2023/02/22 03:24:17;;;;;;;6.25;3.83;;;;;;;;;;5096337;28;20019;-89
2023/02/22 03:27:08;;;;;;;6.13;3.95;;;;;;;;;;5076822;28;20019;-89
2023/02/22 03:29:36;;;;;;;7.07;3.88;;;;;;;;;;5070888;28;20051;-88
2023/02/22 03:32:05;;;;;;;6.57;4.15;;;;;;;;;;5077351;28;20118;-88
2023/02/22 03:34:39;;;;;;;5.70;3.95;;;;;;;;;;5075226;28;20031;-89
2023/02/22 03:37:12;;;;;;;5.93;3.83;;;;;;;;;;5093095;27;20072;-89
2023/02/22 03:39:40;;;;;;;6.90;3.78;;;;;;;;;;5078230;28;20027;-89
2023/02/22 03:42:10;;;;;;;7.05;4.15;;;;;;;;;;5089141;28;20097;-90
2023/02/22 03:44:39;;;;;;;6.07;4.30;;;;;;;;;;5078874;28;20028;-88
2023/02/22 03:47:07;;;;;;;7.78;3.85;;;;;;;;;;5092635;27;20532;-88
2023/02/22 03:49:51;;;;;;;6.63;3.63;;;;;;;;;;5073308;28;20051;-88
2023/02/22 03:52:17;;;;;;;5.30;3.72;;;;;;;;;;5091265;28;20028;-89
2023/02/22 03:54:43;;;;;;;6.20;3.45;;;;;;;;;;5081335;28;20381;-90
2023/02/22 03:57:17;;;;;;;4.43;3.45;;;;;;;;;;5111098;27;20038;-88
2023/02/22 03:59:43;;;;;;;7.03;3.70;;;;;;;;;;5076227;28;20052;-88
2023/02/22 04:02:10;;;;;;;4.93;3.30;;;;;;;;;;5079406;28;20460;-88
2023/02/22 04:04:36;;;;;;;6.20;3.60;;;;;;;;;;5080238;28;20035;-88
2023/02/22 04:07:03;;;;;;;5.50;3.85;;;;;;;;;;5091480;27;20043;-89
2023/02/22 04:09:29;;;;;;;6.00;3.42;;;;;;;;;;5074191;28;20478;-88
2023/02/22 04:11:55;;;;;;;8.18;3.72;;;;;;;;;;5091393;28;20252;-88
2023/02/22 04:14:21;;;;;;;6.18;3.60;;;;;;;;;;5079311;28;20020;-86
2023/02/22 04:16:48;;;;;;;7.82;3.83;;;;;;;;;;5077272;28;20509;-87
2023/02/22 04:19:14;;;;;;;5.88;3.88;;;;;;;;;;5080889;28;20044;-88
2023/02/22 04:21:40;;;;;;;6.70;3.92;;;;;;;;;;5079144;28;20070;-88
2023/02/22 04:24:07;;;;;;;5.78;3.50;;;;;;;;;;5080557;28;20020;-88
2023/02/22 04:26:33;;;;;;;5.13;3.63;;;;;;;;;;5081009;28;20038;-89
2023/02/22 04:28:59;;;;;;;11.52;4.03;;;;;;;;;;5084549;27;20027;-89
2023/02/22 04:31:25;;;;;;;8.32;4.35;;;;;;;;;;5074263;28;20052;-88
2023/02/22 04:33:51;;;;;;;8.38;4.30;;;;;;;;;;5082965;27;20070;-89
2023/02/22 04:36:18;;;;;;;5.80;4.00;;;;;;;;;;5077922;28;20119;-90
2023/02/22 04:38:44;;;;;;;9.40;4.15;;;;;;;;;;5078480;28;20133;-89
2023/02/22 04:41:10;;;;;;;6.65;3.97;;;;;;;;;;5078209;28;20512;-89
2023/02/22 04:43:36;;;;;;;6.47;4.68;;;;;;;;;;5071459;28;20523;-89
2023/02/22 04:46:03;;;;;;;7.95;4.80;;;;;;;;;;5078346;28;20031;-87
2023/02/22 04:48:29;;;;;;;8.88;5.03;;;;;;;;;;5097144;27;20298;-87
2023/02/22 04:50:55;;;;;;;7.70;4.68;;;;;;;;;;5074894;28;20028;-87
2023/02/22 04:53:22;;;;;;;7.07;4.85;;;;;;;;;;5079426;28;20028;-87
2023/02/22 04:55:48;;;;;;;8.20;5.15;;;;;;;;;;5078929;28;20398;-88
2023/02/22 04:58:14;;;;;;;6.93;4.80;;;;;;;;;;5078071;28;20044;-88
2023/02/22 05:00:41;;;;;;;7.47;5.38;;;;;;;;;;5080088;28;20119;-86
2023/02/22 05:03:07;;;;;;;9.48;4.82;;;;;;;;;;5087692;28;20032;-87
2023/02/22 05:05:34;;;;;;;6.47;4.47;;;;;;;;;;5076258;28;20031;-88
2023/02/22 05:08:00;;;;;;;7.18;5.10;;;;;;;;;;5081552;28;20058;-88
2023/02/22 05:10:26;;;;;;;8.30;5.32;;;;;;;;;;5067933;28;20051;-89
2023/02/22 05:12:52;;;;;;;7.82;5.40;;;;;;;;;;5092317;28;20074;-88
2023/02/22 05:15:19;;;;;;;7.40;5.43;;;;;;;;;;5071389;28;20553;-89
2023/02/22 05:17:46;;;;;;;8.43;5.57;;;;;;;;;;5079052;28;20057;-87
2023/02/22 05:20:20;;;;;;;6.90;4.50;;;;;;;;;;5092501;28;20050;-88
2023/02/22 05:22:46;;;;;;;6.65;5.32;;;;;;;;;;5072727;28;20112;-88
2023/02/22 05:25:13;;;;;;;9.70;5.38;;;;;;;;;;5079274;28;20027;-88
2023/02/22 05:27:39;;;;;;;10.32;5.10;;;;;;;;;;5076134;28;20522;-87
2023/02/22 05:30:07;;;;;;;7.88;4.93;;;;;;;;;;5085811;28;20028;-89
2023/02/22 05:32:34;;;;;;;10.10;4.45;;;;;;;;;;5057060;28;20043;-87
2023/02/22 05:35:00;;;;;;;7.63;4.30;;;;;;;;;;5081308;28;20020;-88
2023/02/22 05:37:27;;;;;;;7.72;4.65;;;;;;;;;;5075986;28;20032;-87
2023/02/22 05:39:54;;;;;;;11.07;5.32;;;;;;;;;;5078266;28;20318;-88
2023/02/22 05:42:22;;;;;;;8.43;5.30;;;;;;;;;;5072990;28;20180;-87
2023/02/22 05:44:48;;;;;;;9.77;6.10;;;;;;;;;;5101006;28;20174;-89
2023/02/22 05:47:14;;;;;;;9.73;5.70;;;;;;;;;;5082942;28;20094;-88
2023/02/22 05:49:40;;;;;;;11.48;5.72;;;;;;;;;;5075796;28;20517;-88
2023/02/22 05:52:07;;;;;;;9.98;5.10;;;;;;;;;;5076308;28;20343;-89
2023/02/22 05:54:33;;;;;;;7.68;4.60;;;;;;;;;;5075806;28;20315;-88
2023/02/22 05:56:59;;;;;;;5.57;4.03;;;;;;;;;;5081309;28;20082;-88
2023/02/22 05:59:26;;;;;;;7.55;4.20;;;;;;;;;;5091316;28;20027;-88
2023/02/22 06:01:52;;;;;;;8.10;4.35;;;;;;;;;;5076472;28;20039;-89
2023/02/22 06:04:19;;;;;;;9.35;5.40;;;;;;;;;;5074972;28;20044;-91
2023/02/22 06:06:45;;;;;;;8.82;4.72;;;;;;;;;;5078754;28;20189;-89
2023/02/22 06:09:11;;;;;;;7.53;4.50;;;;;;;;;;5082724;28;20041;-86
2023/02/22 06:11:37;;;;;;;8.10;5.07;;;;;;;;;;5093621;27;20031;-87
2023/02/22 06:14:04;;;;;;;5.97;4.18;;;;;;;;;;5081033;27;20395;-87
2023/02/22 06:16:30;;;;;;;6.53;4.35;;;;;;;;;;5089569;28;20062;-86
2023/02/22 06:18:58;;;;;;;7.43;5.05;;;;;;;;;;5105760;27;20074;-87
2023/02/22 06:21:24;;;;;;;7.10;5.05;;;;;;;;;;5073782;28;20104;-88
2023/02/22 06:23:50;;;;;;;10.52;5.20;;;;;;;;;;5082011;28;20477;-87
2023/02/22 06:26:17;;;;;;;7.05;4.85;;;;;;;;;;5081442;28;20023;-87
2023/02/22 06:28:43;;;;;;;9.43;5.80;;;;;;;;;;5077750;28;20227;-86
2023/02/22 06:31:09;;;;;;;9.77;5.53;;;;;;;;;;5078777;28;20036;-87
2023/02/22 06:33:35;;;;;;;7.85;5.18;;;;;;;;;;5076812;28;20023;-86
2023/02/22 06:36:02;;;;;;;8.00;6.05;;;;;;;;;;5070702;28;20078;-88
2023/02/22 06:38:28;;;;;;;11.98;7.95;;;;;;;;;;5071477;28;20024;-89
2023/02/22 06:40:54;;;;;;;16.98;10.45;;;;;;;;;;5079777;28;20065;-89
2023/02/22 06:43:21;;;;;;;11.40;8.70;;;;;;;;;;5080972;28;20024;-90
2023/02/22 06:45:48;;;;;;;81.00;18.00;;;;;;;;;;5076255;28;20313;-93
2023/02/22 06:48:14;;;;;;;44.97;16.70;;;;;;;;;;5087250;27;20266;-91
2023/02/22 06:50:40;;;;;;;25.48;14.20;;;;;;;;;;5075164;28;20020;-89
2023/02/22 06:53:06;;;;;;;19.05;13.88;;;;;;;;;;5079301;28;20291;-88
2023/02/22 06:55:33;;;;;;;21.92;12.88;;;;;;;;;;5079813;28;20048;-89
2023/02/22 06:58:00;;;;;;;24.15;13.38;;;;;;;;;;5069022;28;20578;-89
2023/02/22 07:00:30;;;;;;;22.80;14.07;;;;;;;;;;5076677;28;20031;-89
2023/02/22 07:02:57;;;;;;;22.70;12.32;;;;;;;;;;5089252;28;20039;-88
2023/02/22 07:05:25;;;;;;;21.35;13.02;;;;;;;;;;5076375;28;20031;-88
2023/02/22 07:07:52;;;;;;;22.17;13.63;;;;;;;;;;5080317;28;20059;-87
2023/02/22 07:10:21;;;;;;;17.52;12.38;;;;;;;;;;5067082;28;20530;-87
2023/02/22 07:12:48;;;;;;;22.40;13.93;;;;;;;;;;5074176;28;20024;-88
2023/02/22 07:15:16;;;;;;;15.85;12.10;;;;;;;;;;5072114;28;20031;-88
2023/02/22 07:17:43;;;;;;;19.48;11.65;;;;;;;;;;5079230;27;20026;-87
2023/02/22 07:20:10;;;;;;;18.17;11.38;;;;;;;;;;5070479;28;20028;-86
2023/02/22 07:22:37;;;;;;;19.58;11.48;;;;;;;;;;5071130;28;20215;-86
2023/02/22 07:25:05;;;;;;;14.60;10.45;;;;;;;;;;5086502;28;20980;-87
2023/02/22 07:27:31;;;;;;;19.77;11.68;;;;;;;;;;5097159;27;20433;-88
2023/02/22 07:29:57;;;;;;;16.05;11.32;;;;;;;;;;5081417;28;20027;-88
2023/02/22 07:32:24;;;;;;;16.55;10.95;;;;;;;;;;5075225;28;20139;-87
2023/02/22 07:34:50;;;;;;;15.95;10.07;;;;;;;;;;5094002;28;20045;-87
2023/02/22 07:37:16;;;;;;;22.88;10.75;;;;;;;;;;5076702;28;20438;-88
2023/02/22 07:39:42;;;;;;;15.52;9.90;;;;;;;;;;5079699;28;20548;-87
2023/02/22 07:42:09;;;;;;;18.27;9.13;;;;;;;;;;5088728;28;20123;-89
2023/02/22 07:44:36;;;;;;;19.45;9.55;;;;;;;;;;5098220;27;20019;-88
2023/02/22 07:47:02;;;;;;;16.58;9.27;;;;;;;;;;5079169;28;20116;-87
2023/02/22 07:49:28;;;;;;;12.85;8.38;;;;;;;;;;5085054;28;20516;-87
2023/02/22 07:51:54;;;;;;;10.68;7.72;;;;;;;;;;5083418;28;20111;-86
2023/02/22 07:54:21;;;;;;;11.77;8.30;;;;;;;;;;5066755;28;20310;-87
2023/02/22 07:56:48;;;;;;;14.68;8.25;;;;;;;;;;5076167;27;20051;-87
2023/02/22 07:59:14;;;;;;;13.27;7.60;;;;;;;;;;5078808;28;20027;-87
2023/02/22 08:01:41;;;;;;;17.55;8.98;;;;;;;;;;5076346;28;20032;-89
2023/02/22 08:04:07;;;;;;;11.88;8.27;;;;;;;;;;5077942;28;20028;-86
2023/02/22 08:06:33;;;;;;;16.42;11.80;;;;;;;;;;5078818;27;20028;-85
2023/02/22 08:09:00;;;;;;;16.67;11.57;;;;;;;;;;5091403;27;20126;-86
2023/02/22 08:11:26;;;;;;;20.27;9.40;;;;;;;;;;5073345;28;20027;-87
2023/02/22 08:13:52;;;;;;;11.70;9.38;;;;;;;;;;5075268;28;20024;-87
2023/02/22 08:16:19;;;;;;;12.27;8.95;;;;;;;;;;5082274;28;20027;-86
2023/02/22 08:18:45;;;;;;;14.45;10.23;;;;;;;;;;5070295;28;20024;-89
2023/02/22 08:21:11;;;;;;;16.45;10.35;;;;;;;;;;5083138;28;20024;-89
2023/02/22 08:23:39;;;;;;;17.33;10.63;;;;;;;;;;5094395;27;20225;-87
2023/02/22 08:26:14;;;;;;;23.08;12.10;;;;;;;;;;5077989;28;20024;-89
2023/02/22 08:28:40;;;;;;;15.57;10.65;;;;;;;;;;5098735;27;20043;-89
2023/02/22 08:31:07;;;;;;;16.58;10.00;;;;;;;;;;5088202;28;20027;-92
2023/02/22 08:33:34;;;;;;;13.50;9.88;;;;;;;;;;5100551;27;20012;-91
2023/02/22 08:36:00;;;;;;;18.75;10.23;;;;;;;;;;5083138;28;20032;-90
2023/02/22 08:38:32;;;;;;;17.13;11.02;;;;;;;;;;5076941;28;20138;-89
2023/02/22 08:40:58;;;;;;;;;;;;;;;;;;5086927;27;20023;-91
2023/02/22 08:43:25;;;;;;;17.33;10.93;;;;;;;;;;5078442;28;20113;-90
2023/02/22 08:45:52;;;;;;;16.63;10.50;;;;;;;;;;5095365;27;20191;-90
2023/02/22 08:48:18;;;;;;;19.10;12.68;;;;;;;;;;5092193;27;20027;-91
2023/02/22 08:50:45;;;;;;;18.73;11.43;;;;;;;;;;5097970;28;20019;-90
2023/02/22 08:53:12;;;;;;;17.52;10.80;;;;;;;;;;5081010;28;20046;-92
2023/02/22 08:55:39;;;;;;;16.13;9.88;;;;;;;;;;5090955;28;20047;-87
2023/02/22 08:58:09;;;;;;;17.52;10.48;;;;;;;;;;5090544;28;20138;-88
2023/02/22 09:00:37;;;;;;;15.05;10.35;;;;;;;;;;5080550;28;20031;-89
2023/02/22 09:03:05;;;;;;;13.63;9.40;;;;;;;;;;5079022;28;20048;-93
2023/02/22 09:05:31;;;;;;;11.85;8.05;;;;;;;;;;5079736;28;20517;-88
2023/02/22 09:07:58;;;;;;;13.25;8.88;;;;;;;;;;5077500;28;20023;-86
2023/02/22 09:10:26;;;;;;;14.00;9.27;;;;;;;;;;5071193;28;20201;-90
2023/02/22 09:12:55;;;;;;;12.93;7.82;;;;;;;;;;5081838;28;20110;-87
2023/02/22 09:15:22;;;;;;;12.02;8.98;;;;;;;;;;5077532;28;20055;-89
2023/02/22 09:17:48;;;;;;;12.23;7.63;;;;;;;;;;5080554;28;20512;-91
2023/02/22 09:20:17;;;;;;;11.15;7.20;;;;;;;;;;5084036;28;20037;-94
2023/02/22 09:22:47;;;;;;;14.20;8.38;;;;;;;;;;5082537;28;20023;-90
2023/02/22 09:25:14;;;;;;;13.50;7.70;;;;;;;;;;5078438;28;20019;-90
2023/02/22 09:27:42;;;;;;;11.32;8.02;;;;;;;;;;5083480;28;20432;-90
2023/02/22 09:30:10;;;;;;;11.73;7.30;;;;;;;;;;5089091;28;20024;-93
2023/02/22 09:32:36;;;;;;;15.13;8.98;;;;;;;;;;5086626;28;20044;-92
2023/02/22 09:35:03;;;;;;;13.52;8.05;;;;;;;;;;5089954;28;20105;-89
2023/02/22 09:37:29;;;;;;;13.40;8.48;;;;;;;;;;5083762;28;20012;-91
2023/02/22 09:39:55;;;;;;;10.43;8.18;;;;;;;;;;5093302;27;20050;-90
2023/02/22 09:42:26;;;;;;;15.73;7.80;;;;;;;;;;5088493;28;20032;-91
2023/02/22 09:45:01;;;;;;;11.13;7.93;;;;;;;;;;5102276;27;20093;-91
2023/02/22 09:47:35;;;;;;;13.60;7.10;;;;;;;;;;5079089;28;20020;-91
2023/02/22 09:50:05;;;;;;;11.77;7.38;;;;;;;;;;5098073;27;20020;-88
2023/02/22 09:52:35;;;;;;;13.70;7.15;;;;;;;;;;5076444;28;21154;-92
2023/02/22 09:55:07;;;;;;;11.25;6.65;;;;;;;;;;5090365;28;20031;-90
2023/02/22 09:57:41;;;;;;;7.25;5.78;;;;;;;;;;5105402;27;20492;-90
2023/02/22 10:00:14;;;;;;;8.77;6.05;;;;;;;;;;5082352;28;20270;-89
2023/02/22 10:02:52;;;;;;;12.13;6.40;;;;;;;;;;5102542;27;20039;-88
2023/02/22 10:05:27;;;;;;;7.43;5.93;;;;;;;;;;5088388;28;20052;-89
2023/02/22 10:07:56;;;;;;;9.88;6.80;;;;;;;;;;5103618;27;20117;-88
2023/02/22 10:10:24;;;;;;;9.82;7.18;;;;;;;;;;5097344;27;20077;-88
2023/02/22 10:13:04;;;;;;;11.95;8.10;;;;;;;;;;5100652;27;20019;-88
2023/02/22 10:15:37;;;;;;;12.32;7.55;;;;;;;;;;5084781;28;20532;-90
2023/02/22 10:18:09;;;;;;;10.15;7.20;;;;;;;;;;5084031;28;20788;-90
2023/02/22 10:20:45;;;;;;;10.93;7.65;;;;;;;;;;5096091;28;20040;-91
2023/02/22 10:23:19;;;;;;;16.85;8.45;;;;;;;;;;5083687;28;20550;-88
2023/02/22 10:25:49;;;;;;;12.43;8.38;;;;;;;;;;5076320;28;20085;-89
2023/02/22 10:28:24;;;;;;;14.50;8.57;;;;;;;;;;5087669;28;20028;-87
2023/02/22 10:30:55;;;;;;;10.85;7.68;;;;;;;;;;5077665;27;20107;-91
2023/02/22 10:33:25;;;;;;;10.40;7.40;;;;;;;;;;5088158;27;20106;-90
2023/02/22 10:35:52;;;;;;;12.75;8.20;;;;;;;;;;5100617;27;20298;-89
2023/02/22 10:38:23;;;;;;;11.38;7.38;;;;;;;;;;5090063;27;20020;-89
2023/02/22 10:40:55;;;;;;;12.50;8.47;;;;;;;;;;5098708;27;20035;-90
2023/02/22 10:43:22;;;;;;;12.80;8.23;;;;;;;;;;5085238;27;20067;-86
2023/02/22 10:45:50;;;;;;;12.07;7.50;;;;;;;;;;5094051;27;20478;-86
2023/02/22 10:48:19;;;;;;;11.93;7.75;;;;;;;;;;5091794;28;20024;-86
2023/02/22 10:50:47;;;;;;;10.45;7.43;;;;;;;;;;5078243;28;20057;-85
2023/02/22 10:53:17;;;;;;;10.35;7.15;;;;;;;;;;5083437;27;20053;-85
2023/02/22 10:56:01;;;;;;;9.43;7.25;;;;;;;;;;5068289;28;20036;-86
2023/02/22 10:58:28;;;;;;;10.65;7.50;;;;;;;;;;5076085;28;20554;-86
2023/02/22 11:00:54;;;;;;;11.88;8.07;;;;;;;;;;5069151;28;20031;-85
2023/02/22 11:03:22;;;;;;;11.43;8.15;;;;;;;;;;5060077;28;20035;-87
2023/02/22 11:05:48;;;;;;;9.93;7.15;;;;;;;;;;5052640;28;20032;-87
2023/02/22 11:08:21;;;;;;;8.75;7.13;;;;;;;;;;5057321;28;20024;-85
2023/02/22 11:10:52;;;;;;;11.00;7.88;;;;;;;;;;5055058;28;20098;-86
2023/02/22 11:13:19;;;;;;;10.02;7.38;;;;;;;;;;5061040;28;20317;-87
2023/02/22 11:15:45;;;;;;;11.30;7.10;;;;;;;;;;5058129;28;20245;-85
2023/02/22 11:18:38;;;;;;;9.07;6.68;;;;;;;;;;5061124;28;20032;-86
2023/02/22 11:21:09;;;;;;;11.48;7.38;;;;;;;;;;5056383;28;20515;-86
2023/02/22 11:23:36;;;;;;;8.30;7.05;;;;;;;;;;5068867;28;20043;-85
2023/02/22 11:26:09;;;;;;;8.63;6.60;;;;;;;;;;5054958;28;20115;-87
2023/02/22 11:28:36;;;;;;;10.75;6.53;;;;;;;;;;5072618;28;20480;-85
2023/02/22 11:31:11;;;;;;;8.40;6.35;;;;;;;;;;5056399;28;20374;-87
2023/02/22 11:33:38;;;;;;;8.10;6.22;;;;;;;;;;5069572;28;20109;-86
2023/02/22 11:36:08;;;;;;;11.65;7.05;;;;;;;;;;5070408;28;20031;-87
2023/02/22 11:38:38;;;;;;;8.68;6.60;;;;;;;;;;5069760;28;20313;-85
2023/02/22 11:41:14;;;;;;;8.95;6.60;;;;;;;;;;5065218;28;20111;-87
2023/02/22 11:43:41;;;;;;;9.05;5.85;;;;;;;;;;5068957;28;20044;-86
2023/02/22 11:46:17;;;;;;;8.02;6.05;;;;;;;;;;5070078;28;20036;-86
2023/02/22 11:49:07;;;;;;;8.40;6.00;;;;;;;;;;5058236;28;20028;-87
2023/02/22 11:51:37;;;;;;;8.68;5.97;;;;;;;;;;5044073;28;20026;-84
2023/02/22 11:54:27;;;;;;;7.65;5.15;;;;;;;;;;5055247;28;20389;-84
2023/02/22 11:57:00;;;;;;;9.45;4.70;;;;;;;;;;5077626;28;20266;-85
2023/02/22 11:59:29;;;;;;;10.07;5.65;;;;;;;;;;5061709;28;20290;-86
2023/02/22 12:02:00;;;;;;;10.45;5.47;;;;;;;;;;5067359;28;20585;-87
2023/02/22 12:04:35;;;;;;;6.90;5.20;;;;;;;;;;5060831;28;20112;-87
2023/02/22 12:07:14;;;;;;;7.63;4.90;;;;;;;;;;5091583;27;20138;-87
2023/02/22 12:09:40;;;;;;;7.35;4.55;;;;;;;;;;5068777;28;20055;-86
2023/02/22 12:12:07;;;;;;;6.68;4.60;;;;;;;;;;5060825;28;20433;-87
2023/02/22 12:14:42;;;;;;;7.63;4.70;;;;;;;;;;5056125;28;20382;-87
2023/02/22 12:17:27;;;;;;;8.48;4.32;;;;;;;;;;5071723;28;20271;-86
2023/02/22 12:20:13;;;;;;;7.63;4.47;;;;;;;;;;5072034;28;20343;-85
2023/02/22 12:22:46;;;;;;;5.30;4.35;;;;;;;;;;5051952;28;20616;-86
2023/02/22 12:25:15;;;;;;;5.22;3.83;;;;;;;;;;5070242;28;20400;-86
2023/02/22 12:27:57;;;;;;;6.93;4.32;;;;;;;;;;5058295;28;20059;-87
2023/02/22 12:30:27;;;;;;;5.10;3.92;;;;;;;;;;5072197;28;20032;-86
2023/02/22 12:32:57;;;;;;;5.40;3.97;;;;;;;;;;5058613;28;20033;-87
2023/02/22 12:35:28;;;;;;;7.13;3.45;;;;;;;;;;5069740;28;20605;-86
2023/02/22 12:38:00;;;;;;;4.15;3.45;;;;;;;;;;5045451;28;20025;-87
2023/02/22 12:40:34;;;;;;;6.10;3.92;;;;;;;;;;5049733;28;20250;-86
2023/02/22 12:43:26;;;;;;;7.38;4.13;;;;;;;;;;5052639;28;20073;-87
2023/02/22 12:45:53;;;;;;;5.30;4.15;;;;;;;;;;5049182;28;20037;-87
2023/02/22 12:48:38;;;;;;;5.28;3.85;;;;;;;;;;5063572;28;20028;-86
2023/02/22 12:51:17;;;;;;;10.07;4.05;;;;;;;;;;5056904;28;20090;-87
2023/02/22 12:53:46;;;;;;;6.13;4.07;;;;;;;;;;5058540;28;20115;-87
2023/02/22 12:56:15;;;;;;;6.05;3.80;;;;;;;;;;5068459;28;20068;-85
2023/02/22 12:58:48;;;;;;;5.32;3.72;;;;;;;;;;5086551;28;20024;-86
2023/02/22 13:01:20;;;;;;;8.05;3.50;;;;;;;;;;5101740;27;20482;-85
2023/02/22 13:03:46;;;;;;;6.53;4.63;;;;;;;;;;5078977;28;20051;-88
2023/02/22 13:06:36;;;;;;;5.30;4.10;;;;;;;;;;5077752;28;20766;-86
2023/02/22 13:09:05;;;;;;;4.88;3.80;;;;;;;;;;5093064;28;20030;-87
2023/02/22 13:11:43;;;;;;;8.38;4.30;;;;;;;;;;5086766;28;20016;-87
2023/02/22 13:14:32;;;;;;;6.38;4.03;;;;;;;;;;5102161;28;20027;-86
2023/02/22 13:17:07;;;;;;;6.65;4.43;;;;;;;;;;5079359;28;20290;-85
2023/02/22 13:19:38;;;;;;;5.55;4.00;;;;;;;;;;5098998;28;20027;-86
2023/02/22 13:22:07;;;;;;;5.57;4.15;;;;;;;;;;5078796;28;20184;-86
2023/02/22 13:24:39;;;;;;;5.72;4.32;;;;;;;;;;5078807;28;20023;-85
2023/02/22 13:27:10;;;;;;;6.50;4.32;;;;;;;;;;5080956;28;20380;-87
2023/02/22 13:29:38;;;;;;;8.60;4.20;;;;;;;;;;5085997;28;20504;-88
2023/02/22 13:32:12;;;;;;;4.88;3.90;;;;;;;;;;5079523;28;20031;-87
2023/02/22 13:34:41;;;;;;;6.90;4.57;;;;;;;;;;5076082;28;20543;-86
2023/02/22 13:37:10;;;;;;;5.95;4.40;;;;;;;;;;5093248;27;20039;-87
2023/02/22 13:39:53;;;;;;;4.72;3.70;;;;;;;;;;5099166;28;20026;-87
2023/02/22 13:42:38;;;;;;;5.38;4.22;;;;;;;;;;5086075;28;20032;-86
2023/02/22 13:45:20;;;;;;;5.55;4.53;;;;;;;;;;5085712;28;20078;-88
2023/02/22 13:47:48;;;;;;;5.78;4.47;;;;;;;;;;5083210;28;20138;-85
2023/02/22 13:50:33;;;;;;;7.05;4.38;;;;;;;;;;5084119;28;20508;-88
2023/02/22 13:53:03;;;;;;;5.20;4.05;;;;;;;;;;5095906;27;20101;-87
2023/02/22 13:55:31;;;;;;;7.15;4.72;;;;;;;;;;5072753;28;20051;-86
2023/02/22 13:58:09;;;;;;;7.22;4.32;;;;;;;;;;5066144;28;20024;-86
2023/02/22 14:00:43;;;;;;;8.88;4.68;;;;;;;;;;5076275;28;20050;-86
2023/02/22 14:03:12;;;;;;;5.93;4.38;;;;;;;;;;5077039;28;20101;-87
2023/02/22 14:05:41;;;;;;;6.20;4.68;;;;;;;;;;5064468;28;20024;-87
2023/02/22 14:08:27;;;;;;;8.50;5.32;;;;;;;;;;5077372;28;20084;-85
2023/02/22 14:10:58;;;;;;;6.43;3.88;;;;;;;;;;5045726;28;20043;-87
2023/02/22 14:13:32;;;;;;;5.80;4.35;;;;;;;;;;5076489;28;20031;-86
2023/02/22 14:16:01;;;;;;;6.57;4.47;;;;;;;;;;5065020;28;20493;-86
2023/02/22 14:18:34;;;;;;;5.97;4.20;;;;;;;;;;5046484;28;20025;-88
2023/02/22 14:21:06;;;;;;;6.25;4.03;;;;;;;;;;5065016;28;20036;-88
2023/02/22 14:23:40;;;;;;;6.97;4.50;;;;;;;;;;5078320;28;20068;-88
2023/02/22 14:26:15;;;;;;;11.23;4.53;;;;;;;;;;5072639;28;20028;-87
2023/02/22 14:28:45;;;;;;;6.15;4.13;;;;;;;;;;5070820;28;20501;-88
2023/02/22 14:31:13;;;;;;;7.93;4.40;;;;;;;;;;5070069;28;20028;-85
2023/02/22 14:33:58;;;;;;;6.35;4.15;;;;;;;;;;5050929;28;20588;-87
2023/02/22 14:36:36;;;;;;;5.88;4.28;;;;;;;;;;5078752;28;20026;-86
2023/02/22 14:39:06;;;;;;;5.40;4.10;;;;;;;;;;5055287;28;20039;-87
2023/02/22 14:41:33;;;;;;;5.88;4.00;;;;;;;;;;5076917;28;20043;-87
2023/02/22 14:44:02;;;;;;;7.68;6.07;;;;;;;;;;5063939;28;20046;-88
2023/02/22 14:46:31;;;;;;;8.93;6.35;;;;;;;;;;5071861;28;20085;-87
2023/02/22 14:49:00;;;;;;;9.30;7.03;;;;;;;;;;5072929;28;20896;-87
2023/02/22 14:51:38;;;;;;;9.25;6.82;;;;;;;;;;5073639;28;20028;-88
2023/02/22 14:54:19;;;;;;;11.85;8.30;;;;;;;;;;5050662;28;20253;-89